Time,TemperatureF,DewpointF,PressureIn,WindDirection,WindDirectionDegrees,WindSpeedMPH,WindSpeedGustMPH,Humidity,HourlyPrecipIn,Conditions,Clouds,dailyrainin,SoftwareType,DateUTC
2013-03-21 00:00:00,46.4,42.1,29.66,NNW,338,0.0,0.0,85,0.00,,,0.05,VWS V14.01,2013-03-21 07:00:00,
2013-03-21 00:02:00,49.2,43.0,29.69,NNW,333,0.0,0.0,79,0.00,,,0.00,VWS V14.01,2013-03-21 07:02:00,
2013-03-21 00:07:00,49.0,43.1,29.69,NNW,333,0.0,0.0,80,0.00,,,0.00,VWS V14.01,2013-03-21 07:07:00,
2013-03-21 00:12:00,48.9,43.0,29.69,NNW,333,0.0,0.0,80,0.00,,,0.00,VWS V14.01,2013-03-21 07:12:00,
2013-03-21 00:17:00,48.5,42.3,29.69,NNW,334,0.0,0.0,79,0.00,,,0.00,VWS V14.01,2013-03-21 07:17:00,
2013-03-21 00:22:00,48.2,42.0,29.69,NNW,334,0.0,0.0,79,0.00,,,0.00,VWS V14.01,2013-03-21 07:22:00,
2013-03-21 00:27:00,47.9,42.0,29.70,NNW,334,0.0,0.0,80,0.00,,,0.00,VWS V14.01,2013-03-21 07:27:00,
2013-03-21 00:30:00,46.3,42.3,29.66,NNW,338,0.0,0.0,86,0.00,,,0.05,VWS V14.01,2013-03-21 07:30:00,
2013-03-21 00:32:00,47.5,41.7,29.69,NNW,334,0.0,0.0,80,0.00,,,0.00,VWS V14.01,2013-03-21 07:32:00,
2013-03-21 00:37:00,47.3,41.5,29.70,NNW,334,0.0,0.0,80,0.00,,,0.00,VWS V14.01,2013-03-21 07:37:00,
2013-03-21 00:42:00,47.1,41.3,29.70,NNW,334,0.0,0.0,80,0.00,,,0.00,VWS V14.01,2013-03-21 07:42:00,
2013-03-21 00:47:00,47.0,41.2,29.70,NNW,334,0.0,0.0,80,0.00,,,0.00,VWS V14.01,2013-03-21 07:47:00,
2013-03-21 00:52:00,46.7,40.9,29.70,NNW,334,0.0,0.0,80,0.00,,,0.00,VWS V14.01,2013-03-21 07:52:00,
2013-03-21 00:57:00,46.7,41.2,29.70,NNW,334,0.0,0.0,81,0.00,,,0.00,VWS V14.01,2013-03-21 07:57:00,
2013-03-21 01:00:00,46.2,42.2,29.66,NNW,338,0.0,0.0,86,0.00,,,0.00,VWS V14.01,2013-03-21 08:00:00,
2013-03-21 01:02:00,46.7,41.5,29.69,NNW,334,0.0,0.0,82,0.00,,,0.00,VWS V14.01,2013-03-21 08:02:00,
2013-03-21 01:07:00,46.7,41.5,29.69,NNW,334,0.0,0.0,82,0.00,,,0.00,VWS V14.01,2013-03-21 08:07:00,
2013-03-21 01:12:00,46.9,41.7,29.69,NNW,334,0.0,0.0,82,0.00,,,0.00,VWS V14.01,2013-03-21 08:12:00,
2013-03-21 01:18:00,46.9,41.7,29.68,NNW,334,0.0,0.0,82,0.00,,,0.00,VWS V14.01,2013-03-21 08:18:00,
2013-03-21 01:23:00,46.9,41.7,29.69,NNW,334,0.0,0.0,82,0.00,,,0.00,VWS V14.01,2013-03-21 08:23:00,
2013-03-21 01:28:00,46.7,41.5,29.69,NNW,334,0.0,0.0,82,0.00,,,0.00,VWS V14.01,2013-03-21 08:28:00,
2013-03-21 01:30:00,46.4,42.8,29.66,NNW,338,0.0,0.0,87,0.00,,,0.00,VWS V14.01,2013-03-21 08:30:00,
2013-03-21 01:33:00,46.7,41.5,29.69,NNW,334,0.0,0.0,82,0.00,,,0.00,VWS V14.01,2013-03-21 08:33:00,
2013-03-21 01:38:00,46.6,41.4,29.69,NNW,334,0.0,0.0,82,0.00,,,0.00,VWS V14.01,2013-03-21 08:38:00,
2013-03-21 01:43:00,46.4,41.2,29.68,NNW,334,0.0,0.0,82,0.00,,,0.00,VWS V14.01,2013-03-21 08:43:00,
2013-03-21 01:48:00,46.3,41.1,29.68,NNW,334,0.0,0.0,82,0.00,,,0.00,VWS V14.01,2013-03-21 08:48:00,
2013-03-21 01:53:00,46.0,41.1,29.68,NNW,334,0.0,0.0,83,0.00,,,0.00,VWS V14.01,2013-03-21 08:53:00,
2013-03-21 01:58:00,45.8,40.6,29.69,NNW,334,0.0,0.0,82,0.00,,,0.00,VWS V14.01,2013-03-21 08:58:00,
2013-03-21 02:00:00,46.3,42.7,29.67,NNW,338,0.0,0.0,87,0.00,,,0.00,VWS V14.01,2013-03-21 09:00:00,
2013-03-21 02:03:00,45.7,40.5,29.69,NNW,336,0.0,0.0,82,0.00,,,0.00,VWS V14.01,2013-03-21 09:03:00,
2013-03-21 02:08:00,45.5,40.0,29.69,NNW,336,0.0,0.0,81,0.00,,,0.00,VWS V14.01,2013-03-21 09:08:00,
2013-03-21 02:13:00,45.4,39.6,29.69,NNW,336,0.0,0.0,80,0.00,,,0.00,VWS V14.01,2013-03-21 09:13:00,
2013-03-21 02:18:00,45.2,39.4,29.69,NNW,336,0.0,0.0,80,0.00,,,0.00,VWS V14.01,2013-03-21 09:18:00,
2013-03-21 02:23:00,45.0,39.2,29.69,NNW,336,0.0,0.0,80,0.00,,,0.00,VWS V14.01,2013-03-21 09:23:00,
2013-03-21 02:28:00,44.8,39.0,29.69,NNW,336,0.0,0.0,80,0.00,,,0.00,VWS V14.01,2013-03-21 09:28:00,
2013-03-21 02:30:00,46.4,42.8,29.67,NNW,338,0.0,0.0,87,0.00,,,0.00,VWS V14.01,2013-03-21 09:30:00,
2013-03-21 02:33:00,44.5,38.4,29.69,NNW,336,0.0,0.0,79,0.00,,,0.00,VWS V14.01,2013-03-21 09:33:00,
2013-03-21 02:38:00,44.4,38.0,29.69,NNW,336,0.0,0.0,78,0.00,,,0.00,VWS V14.01,2013-03-21 09:38:00,
2013-03-21 02:43:00,44.4,38.0,29.69,NNW,336,0.0,0.0,78,0.00,,,0.00,VWS V14.01,2013-03-21 09:43:00,
2013-03-21 02:48:00,44.3,37.9,29.69,NNW,336,0.0,0.0,78,0.00,,,0.00,VWS V14.01,2013-03-21 09:48:00,
2013-03-21 02:53:00,44.3,37.9,29.69,NNW,336,0.0,0.0,78,0.00,,,0.00,VWS V14.01,2013-03-21 09:53:00,
2013-03-21 02:58:00,44.3,37.9,29.69,NNW,337,0.0,0.0,78,0.00,,,0.00,VWS V14.01,2013-03-21 09:58:00,
2013-03-21 03:00:00,46.5,42.8,29.67,NNW,338,0.0,0.0,87,0.01,,,0.01,VWS V14.01,2013-03-21 10:00:00,
2013-03-21 03:03:00,44.3,37.6,29.68,NNW,337,0.0,0.0,77,0.00,,,0.00,VWS V14.01,2013-03-21 10:03:00,
2013-03-21 03:08:00,44.4,38.0,29.69,NNW,336,0.0,0.0,78,0.00,,,0.00,VWS V14.01,2013-03-21 10:08:00,
2013-03-21 03:13:00,44.5,38.1,29.69,NNW,336,0.0,0.0,78,0.00,,,0.00,VWS V14.01,2013-03-21 10:13:00,
2013-03-21 03:18:00,44.6,37.8,29.68,NNW,336,0.0,0.0,77,0.00,,,0.00,VWS V14.01,2013-03-21 10:18:00,
2013-03-21 03:23:00,44.6,38.2,29.68,NNW,336,0.0,0.0,78,0.00,,,0.00,VWS V14.01,2013-03-21 10:23:00,
2013-03-21 03:28:00,44.6,38.2,29.69,NNW,337,0.0,0.0,78,0.00,,,0.00,VWS V14.01,2013-03-21 10:28:00,
2013-03-21 03:30:00,46.5,42.8,29.66,NNW,338,0.0,0.0,87,0.01,,,0.01,VWS V14.01,2013-03-21 10:30:00,
2013-03-21 03:33:00,44.7,38.3,29.69,NNW,336,0.0,0.0,78,0.00,,,0.00,VWS V14.01,2013-03-21 10:33:00,
2013-03-21 03:38:00,44.6,38.2,29.69,NNW,336,0.0,0.0,78,0.00,,,0.00,VWS V14.01,2013-03-21 10:38:00,
2013-03-21 03:43:00,44.7,38.3,29.68,NNW,336,0.0,0.0,78,0.00,,,0.00,VWS V14.01,2013-03-21 10:43:00,
2013-03-21 03:48:00,44.8,38.7,29.68,NNW,336,0.0,0.0,79,0.00,,,0.00,VWS V14.01,2013-03-21 10:48:00,
2013-03-21 03:53:00,44.7,38.3,29.68,NNW,342,0.0,0.0,78,0.00,,,0.00,VWS V14.01,2013-03-21 10:53:00,
2013-03-21 03:58:00,44.6,38.5,29.69,NNW,342,0.0,0.0,79,0.00,,,0.00,VWS V14.01,2013-03-21 10:58:00,
2013-03-21 04:00:00,46.7,43.0,29.66,NNW,338,0.0,0.0,87,0.02,,,0.02,VWS V14.01,2013-03-21 11:00:00,
2013-03-21 04:03:00,44.6,38.5,29.68,NNW,342,0.0,0.0,79,0.00,,,0.00,VWS V14.01,2013-03-21 11:03:00,
2013-03-21 04:08:00,44.6,38.5,29.69,NNW,342,0.0,0.0,79,0.00,,,0.00,VWS V14.01,2013-03-21 11:08:00,
2013-03-21 04:13:00,44.6,38.8,29.69,NNW,342,0.0,0.0,80,0.00,,,0.00,VWS V14.01,2013-03-21 11:13:00,
2013-03-21 04:18:00,44.5,38.7,29.69,NNW,342,0.0,0.0,80,0.00,,,0.00,VWS V14.01,2013-03-21 11:18:00,
2013-03-21 04:23:00,44.5,38.7,29.69,NNW,342,0.0,0.0,80,0.00,,,0.00,VWS V14.01,2013-03-21 11:23:00,
2013-03-21 04:28:00,44.4,38.6,29.69,NNW,342,0.0,0.0,80,0.00,,,0.00,VWS V14.01,2013-03-21 11:28:00,
2013-03-21 04:30:00,46.9,43.2,29.66,NNW,338,0.0,0.0,87,0.01,,,0.02,VWS V14.01,2013-03-21 11:30:00,
2013-03-21 04:33:00,44.5,38.7,29.69,NNW,342,0.0,0.0,80,0.00,,,0.00,VWS V14.01,2013-03-21 11:33:00,
2013-03-21 04:38:00,44.3,38.5,29.68,NNW,342,0.0,0.0,80,0.00,,,0.00,VWS V14.01,2013-03-21 11:38:00,
2013-03-21 04:43:00,44.2,38.4,29.68,NNW,342,0.0,0.0,80,0.00,,,0.00,VWS V14.01,2013-03-21 11:43:00,
2013-03-21 04:48:00,44.1,38.3,29.68,NNW,342,0.0,0.0,80,0.00,,,0.00,VWS V14.01,2013-03-21 11:48:00,
2013-03-21 04:53:00,43.9,38.1,29.68,NNW,342,0.0,0.0,80,0.00,,,0.00,VWS V14.01,2013-03-21 11:53:00,
2013-03-21 04:58:00,43.6,38.2,29.68,NNW,342,0.0,0.0,81,0.00,,,0.00,VWS V14.01,2013-03-21 11:58:00,
2013-03-21 05:00:00,47.1,43.7,29.65,NNW,338,0.0,0.0,88,0.01,,,0.02,VWS V14.01,2013-03-21 12:00:00,
2013-03-21 05:03:00,43.5,38.1,29.68,NNW,342,0.0,0.0,81,0.00,,,0.00,VWS V14.01,2013-03-21 12:03:00,
2013-03-21 05:08:00,43.3,37.9,29.68,NNW,342,0.0,0.0,81,0.00,,,0.00,VWS V14.01,2013-03-21 12:08:00,
2013-03-21 05:13:00,43.1,37.7,29.68,NNW,342,0.0,0.0,81,0.00,,,0.00,VWS V14.01,2013-03-21 12:13:00,
2013-03-21 05:18:00,42.9,37.5,29.68,NNW,342,0.0,0.0,81,0.00,,,0.00,VWS V14.01,2013-03-21 12:18:00,
2013-03-21 05:23:00,42.7,37.6,29.67,NNW,342,0.0,0.0,82,0.00,,,0.00,VWS V14.01,2013-03-21 12:23:00,
2013-03-21 05:28:00,42.5,37.4,29.67,NNW,342,0.0,0.0,82,0.00,,,0.00,VWS V14.01,2013-03-21 12:28:00,
2013-03-21 05:30:00,47.2,43.8,29.65,NNW,338,0.0,0.0,88,0.00,,,0.02,VWS V14.01,2013-03-21 12:30:00,
2013-03-21 05:33:00,42.4,37.3,29.67,NNW,342,0.0,0.0,82,0.00,,,0.00,VWS V14.01,2013-03-21 12:33:00,
2013-03-21 05:38:00,42.2,37.1,29.66,NNW,342,0.0,0.0,82,0.00,,,0.00,VWS V14.01,2013-03-21 12:38:00,
2013-03-21 05:43:00,42.1,37.3,29.67,NNW,342,0.0,0.0,83,0.00,,,0.00,VWS V14.01,2013-03-21 12:43:00,
2013-03-21 05:48:00,41.8,37.0,29.66,NNW,342,0.0,0.0,83,0.00,,,0.00,VWS V14.01,2013-03-21 12:48:00,
2013-03-21 05:53:00,41.6,36.8,29.66,NNW,342,0.0,0.0,83,0.00,,,0.00,VWS V14.01,2013-03-21 12:53:00,
2013-03-21 05:58:00,41.4,36.6,29.65,NNW,342,0.0,0.0,83,0.00,,,0.00,VWS V14.01,2013-03-21 12:58:00,
2013-03-21 06:00:00,47.3,44.2,29.63,NNW,338,0.0,0.0,89,0.00,,,0.02,VWS V14.01,2013-03-21 13:00:00,
2013-03-21 06:04:00,41.0,36.2,29.66,NNW,342,0.0,0.0,83,0.00,,,0.00,VWS V14.01,2013-03-21 13:04:00,
2013-03-21 06:09:00,40.9,36.1,29.68,NNW,342,0.0,0.0,83,0.00,,,0.00,VWS V14.01,2013-03-21 13:09:00,
2013-03-21 06:14:00,40.7,36.2,29.68,NNW,342,0.0,0.0,84,0.00,,,0.00,VWS V14.01,2013-03-21 13:14:00,
2013-03-21 06:19:00,40.6,36.2,29.68,NNW,342,0.0,0.0,84,0.00,,,0.00,VWS V14.01,2013-03-21 13:19:00,
2013-03-21 06:24:00,40.7,36.2,29.68,NNW,342,0.0,0.0,84,0.00,,,0.00,VWS V14.01,2013-03-21 13:24:00,
2013-03-21 06:29:00,40.5,36.0,29.68,NNW,342,0.0,0.0,84,0.00,,,0.00,VWS V14.01,2013-03-21 13:29:00,
2013-03-21 06:30:00,47.3,44.2,29.63,NNW,338,0.0,0.0,89,0.00,,,0.02,VWS V14.01,2013-03-21 13:30:00,
2013-03-21 06:34:00,40.6,36.5,29.68,NNW,342,0.0,0.0,85,0.00,,,0.00,VWS V14.01,2013-03-21 13:34:00,
2013-03-21 06:39:00,40.6,36.5,29.68,NNW,342,0.0,0.0,85,0.00,,,0.01,VWS V14.01,2013-03-21 13:39:00,
2013-03-21 06:44:00,40.6,36.5,29.68,NNW,342,0.0,0.0,85,0.00,,,0.01,VWS V14.01,2013-03-21 13:44:00,
2013-03-21 06:49:00,40.8,36.7,29.68,NNW,342,0.0,0.0,85,0.00,,,0.01,VWS V14.01,2013-03-21 13:49:00,
2013-03-21 06:54:00,41.0,36.8,29.67,NNW,342,0.0,0.0,85,0.00,,,0.01,VWS V14.01,2013-03-21 13:54:00,
2013-03-21 06:59:00,41.1,36.9,29.68,NNW,342,0.0,0.0,85,0.00,,,0.02,VWS V14.01,2013-03-21 13:59:00,
2013-03-21 07:00:00,47.1,44.0,29.63,NNW,338,0.0,0.0,89,0.00,,,0.02,VWS V14.01,2013-03-21 14:00:00,
2013-03-21 07:04:00,41.1,36.6,29.68,NNW,342,0.0,0.0,84,0.00,,,0.02,VWS V14.01,2013-03-21 14:04:00,
2013-03-21 07:09:00,40.9,36.5,29.68,NNW,342,0.0,0.0,84,0.00,,,0.02,VWS V14.01,2013-03-21 14:09:00,
2013-03-21 07:14:00,41.0,36.5,29.68,NNW,342,0.0,0.0,84,0.00,,,0.02,VWS V14.01,2013-03-21 14:14:00,
2013-03-21 07:19:00,40.9,36.8,29.68,NNW,342,0.0,0.0,85,0.00,,,0.02,VWS V14.01,2013-03-21 14:19:00,
2013-03-21 07:24:00,41.0,36.5,29.68,NNW,342,0.0,0.0,84,0.00,,,0.02,VWS V14.01,2013-03-21 14:24:00,
2013-03-21 07:29:00,41.1,36.6,29.67,NNW,342,0.0,0.0,84,0.00,,,0.02,VWS V14.01,2013-03-21 14:29:00,
2013-03-21 07:30:00,47.2,44.1,29.64,NNW,338,0.0,0.0,89,0.00,,,0.02,VWS V14.01,2013-03-21 14:30:00,
2013-03-21 07:34:00,41.2,37.0,29.68,NNW,342,0.0,0.0,85,0.00,,,0.02,VWS V14.01,2013-03-21 14:34:00,
2013-03-21 07:39:00,41.4,36.9,29.67,NNW,342,0.0,0.0,84,0.00,,,0.02,VWS V14.01,2013-03-21 14:39:00,
2013-03-21 07:44:00,41.5,37.0,29.68,NNW,342,0.0,0.0,84,0.00,,,0.02,VWS V14.01,2013-03-21 14:44:00,
2013-03-21 07:55:00,41.0,36.5,29.68,NNW,338,0.0,0.0,84,0.02,,,0.02,VWS V14.01,2013-03-21 14:55:00,
2013-03-21 08:00:00,42.0,37.2,29.68,NNW,342,0.0,0.0,83,0.00,,,0.00,VWS V14.01,2013-03-21 15:00:00,
2013-03-21 08:05:00,42.1,37.3,29.68,NNW,342,0.0,0.0,83,0.00,,,0.00,VWS V14.01,2013-03-21 15:05:00,
2013-03-21 08:10:00,42.6,37.8,29.68,NNW,342,0.0,0.0,83,0.00,,,0.00,VWS V14.01,2013-03-21 15:10:00,
2013-03-21 08:15:00,42.9,37.8,29.68,NNW,342,0.0,0.0,82,0.00,,,0.00,VWS V14.01,2013-03-21 15:15:00,
2013-03-21 08:20:00,43.2,38.1,29.68,NNW,342,0.0,0.0,82,0.00,,,0.00,VWS V14.01,2013-03-21 15:20:00,
2013-03-21 08:25:00,43.5,38.4,29.69,NNW,342,0.0,0.0,82,0.00,,,0.00,VWS V14.01,2013-03-21 15:25:00,
2013-03-21 08:30:00,44.0,38.5,29.68,NNW,342,0.0,0.0,81,0.00,,,0.00,VWS V14.01,2013-03-21 15:30:00,
2013-03-21 08:35:00,44.4,38.6,29.69,NNW,342,0.0,0.0,80,0.00,,,0.00,VWS V14.01,2013-03-21 15:35:00,
2013-03-21 08:40:00,44.7,38.6,29.68,NNW,342,0.0,0.0,79,0.00,,,0.00,VWS V14.01,2013-03-21 15:40:00,
2013-03-21 08:45:00,45.2,38.8,29.68,NNW,342,0.0,0.0,78,0.00,,,0.00,VWS V14.01,2013-03-21 15:45:00,
2013-03-21 08:50:00,45.6,38.8,29.68,NNW,342,0.0,0.0,77,0.00,,,0.00,VWS V14.01,2013-03-21 15:50:00,
2013-03-21 08:55:00,45.9,38.8,29.68,NNW,342,0.0,0.0,76,0.00,,,0.00,VWS V14.01,2013-03-21 15:55:00,
2013-03-21 09:00:00,46.4,38.9,29.68,NNW,342,0.0,0.0,75,0.00,,,0.00,VWS V14.01,2013-03-21 16:00:00,
2013-03-21 09:05:00,46.9,39.1,29.68,NNW,342,0.0,0.0,74,0.00,,,0.00,VWS V14.01,2013-03-21 16:05:00,
2013-03-21 09:10:00,47.2,39.0,29.68,NNW,342,0.0,0.0,73,0.00,,,0.00,VWS V14.01,2013-03-21 16:10:00,
2013-03-21 09:15:00,47.6,39.4,29.68,NNW,342,0.0,0.0,73,0.00,,,0.00,VWS V14.01,2013-03-21 16:15:00,
2013-03-21 09:21:00,47.9,39.3,29.68,NNW,342,0.0,0.0,72,0.00,,,0.00,VWS V14.01,2013-03-21 16:21:00,
2013-03-21 09:26:00,48.4,39.8,29.68,NNW,342,0.0,0.0,72,0.00,,,0.00,VWS V14.01,2013-03-21 16:26:00,
2013-03-21 09:30:00,47.7,44.9,29.64,NNW,338,0.0,0.0,90,0.00,,,0.02,VWS V14.01,2013-03-21 16:30:00,
2013-03-21 09:31:00,48.9,39.6,29.68,NNW,342,0.0,0.0,70,0.00,,,0.00,VWS V14.01,2013-03-21 16:31:00,
2013-03-21 09:36:00,49.3,39.9,29.68,NNW,342,0.0,0.0,70,0.00,,,0.00,VWS V14.01,2013-03-21 16:36:00,
2013-03-21 09:41:00,50.1,40.7,29.68,NNW,342,0.0,0.0,70,0.00,,,0.00,VWS V14.01,2013-03-21 16:41:00,
2013-03-21 09:46:00,50.6,40.4,29.68,NNW,342,0.0,0.0,68,0.00,,,0.00,VWS V14.01,2013-03-21 16:46:00,
2013-03-21 09:51:00,51.3,40.3,29.68,NNW,342,0.0,0.0,66,0.00,,,0.00,VWS V14.01,2013-03-21 16:51:00,
2013-03-21 09:56:00,51.8,40.4,29.69,NNW,342,0.0,0.0,65,0.00,,,0.00,VWS V14.01,2013-03-21 16:56:00,
2013-03-21 10:00:00,48.6,44.9,29.64,NNW,338,0.0,0.0,87,0.00,,,0.02,VWS V14.01,2013-03-21 17:00:00,
2013-03-21 10:01:00,52.4,40.6,29.68,NNW,342,0.0,0.0,64,0.00,,,0.00,VWS V14.01,2013-03-21 17:01:00,
2013-03-21 10:06:00,53.1,40.8,29.68,NNW,342,0.0,0.0,63,0.00,,,0.00,VWS V14.01,2013-03-21 17:06:00,
2013-03-21 10:11:00,53.2,39.7,29.68,NNW,342,0.0,0.0,60,0.00,,,0.00,VWS V14.01,2013-03-21 17:11:00,
2013-03-21 10:16:00,53.4,40.3,29.68,NNW,342,0.0,0.0,61,0.00,,,0.00,VWS V14.01,2013-03-21 17:16:00,
2013-03-21 10:21:00,53.8,39.8,29.68,NNW,342,0.0,0.0,59,0.00,,,0.00,VWS V14.01,2013-03-21 17:21:00,
2013-03-21 10:26:00,53.5,39.5,29.67,NNW,342,0.0,0.0,59,0.00,,,0.00,VWS V14.01,2013-03-21 17:26:00,
2013-03-21 10:30:00,50.5,41.1,29.64,NNW,338,0.0,0.0,70,0.00,,,0.02,VWS V14.01,2013-03-21 17:30:00,
2013-03-21 10:36:00,53.3,38.9,29.68,NNW,342,0.0,0.0,58,0.00,,,0.00,VWS V14.01,2013-03-21 17:36:00,
2013-03-21 10:46:00,55.2,41.6,29.68,NNW,342,0.0,0.0,60,0.00,,,0.00,VWS V14.01,2013-03-21 17:46:00,
2013-03-21 10:51:00,55.4,39.5,29.68,NNW,342,0.0,0.0,55,0.00,,,0.00,VWS V14.01,2013-03-21 17:51:00,
2013-03-21 10:57:00,55.2,39.8,29.68,NNW,342,0.0,0.0,56,0.00,,,0.00,VWS V14.01,2013-03-21 17:57:00,
2013-03-21 11:00:00,52.2,45.2,29.65,NNW,338,0.0,0.0,77,0.00,,,0.02,VWS V14.01,2013-03-21 18:00:00,
2013-03-21 11:02:00,55.3,39.4,29.69,NNW,342,0.0,0.0,55,0.00,,,0.00,VWS V14.01,2013-03-21 18:02:00,
2013-03-21 11:07:00,56.0,40.5,29.69,NNW,342,0.0,0.0,56,0.00,,,0.00,VWS V14.01,2013-03-21 18:07:00,
2013-03-21 11:12:00,56.2,40.3,29.68,NNW,342,0.0,0.0,55,0.00,,,0.00,VWS V14.01,2013-03-21 18:12:00,
2013-03-21 11:17:00,56.7,40.7,29.68,NNW,342,0.0,0.0,55,0.00,,,0.00,VWS V14.01,2013-03-21 18:17:00,
2013-03-21 11:22:00,57.3,40.3,29.68,NNW,342,0.0,0.0,53,0.00,,,0.00,VWS V14.01,2013-03-21 18:22:00,
2013-03-21 11:27:00,57.3,40.8,29.68,NNW,342,0.0,0.0,54,0.00,,,0.00,VWS V14.01,2013-03-21 18:27:00,
2013-03-21 11:30:00,52.5,45.5,29.66,NNW,338,0.0,0.0,77,0.00,,,0.02,VWS V14.01,2013-03-21 18:30:00,
2013-03-21 11:32:00,58.0,41.5,29.68,NNW,342,0.0,0.0,54,0.00,,,0.00,VWS V14.01,2013-03-21 18:32:00,
2013-03-21 11:37:00,58.2,40.7,29.68,NNW,342,0.0,0.0,52,0.00,,,0.00,VWS V14.01,2013-03-21 18:37:00,
2013-03-21 11:42:00,58.0,40.0,29.68,NNW,342,0.0,0.0,51,0.00,,,0.00,VWS V14.01,2013-03-21 18:42:00,
2013-03-21 11:47:00,58.6,41.0,29.68,NNW,342,0.0,0.0,52,0.00,,,0.02,VWS V14.01,2013-03-21 18:47:00,
2013-03-21 11:52:00,59.3,40.2,29.67,NNW,342,0.0,0.0,49,0.00,,,0.02,VWS V14.01,2013-03-21 18:52:00,
2013-03-21 11:57:00,59.4,40.2,29.67,NNW,342,0.0,0.0,49,0.00,,,0.02,VWS V14.01,2013-03-21 18:57:00,
2013-03-21 12:00:00,53.3,44.9,29.65,NNW,338,0.0,0.0,73,0.00,,,0.02,VWS V14.01,2013-03-21 19:00:00,
2013-03-21 12:02:00,59.6,40.4,29.67,NNW,342,0.0,0.0,49,0.00,,,0.02,VWS V14.01,2013-03-21 19:02:00,
2013-03-21 12:07:00,59.6,40.4,29.67,NNW,346,0.0,0.0,49,0.00,,,0.02,VWS V14.01,2013-03-21 19:07:00,
2013-03-21 12:12:00,60.0,39.7,29.67,NNW,346,0.0,0.0,47,0.00,,,0.02,VWS V14.01,2013-03-21 19:12:00,
2013-03-21 12:17:00,60.6,40.3,29.67,NNW,346,0.0,0.0,47,0.00,,,0.02,VWS V14.01,2013-03-21 19:17:00,
2013-03-21 12:22:00,61.3,39.8,29.67,NNW,346,0.0,0.0,45,0.00,,,0.02,VWS V14.01,2013-03-21 19:22:00,
2013-03-21 12:27:00,61.9,39.8,29.66,NNW,346,0.0,0.0,44,0.00,,,0.02,VWS V14.01,2013-03-21 19:27:00,
2013-03-21 12:30:00,54.1,46.4,29.67,NNW,338,0.0,0.0,75,0.00,,,0.02,VWS V14.01,2013-03-21 19:30:00,
2013-03-21 12:32:00,61.9,40.3,29.66,NNW,346,0.0,0.0,45,0.00,,,0.02,VWS V14.01,2013-03-21 19:32:00,
2013-03-21 12:37:00,62.0,39.9,29.66,NNW,346,0.0,0.0,44,0.00,,,0.02,VWS V14.01,2013-03-21 19:37:00,
2013-03-21 12:42:00,62.2,39.5,29.66,NNW,347,0.0,0.0,43,0.00,,,0.02,VWS V14.01,2013-03-21 19:42:00,
2013-03-21 12:47:00,62.0,39.9,29.66,NNW,347,0.0,0.0,44,0.00,,,0.02,VWS V14.01,2013-03-21 19:47:00,
2013-03-21 12:52:00,62.1,40.0,29.66,NNW,347,0.0,0.0,44,0.00,,,0.02,VWS V14.01,2013-03-21 19:52:00,
2013-03-21 12:57:00,61.4,39.3,29.65,NNW,348,0.0,0.0,44,0.00,,,0.02,VWS V14.01,2013-03-21 19:57:00,
2013-03-21 13:00:00,53.9,48.5,29.67,NNW,338,0.0,0.0,82,0.00,,,0.02,VWS V14.01,2013-03-21 20:00:00,
2013-03-21 13:02:00,61.0,39.5,29.66,North,353,0.0,0.0,45,0.00,,,0.02,VWS V14.01,2013-03-21 20:02:00,
2013-03-21 13:07:00,60.6,39.2,29.65,ENE,76,0.0,0.0,45,0.00,,,0.02,VWS V14.01,2013-03-21 20:07:00,
2013-03-21 13:12:00,61.4,40.5,29.65,East,80,0.0,0.0,46,0.00,,,0.02,VWS V14.01,2013-03-21 20:12:00,
2013-03-21 13:17:00,61.8,39.1,29.65,ESE,110,0.0,0.0,43,0.00,,,0.02,VWS V14.01,2013-03-21 20:17:00,
2013-03-21 13:22:00,61.5,39.4,29.65,SSE,164,0.0,0.0,44,0.00,,,0.02,VWS V14.01,2013-03-21 20:22:00,
2013-03-21 13:27:00,60.9,39.4,29.65,SE,131,0.0,0.0,45,0.00,,,0.02,VWS V14.01,2013-03-21 20:27:00,
2013-03-21 13:30:00,53.0,48.6,29.67,NNW,338,0.0,0.0,85,0.00,,,0.02,VWS V14.01,2013-03-21 20:30:00,
2013-03-21 13:32:00,61.6,41.2,29.65,NE,48,0.0,0.0,47,0.00,,,0.02,VWS V14.01,2013-03-21 20:32:00,
2013-03-21 13:37:00,62.3,40.1,29.64,NNE,19,0.0,0.0,44,0.00,,,0.02,VWS V14.01,2013-03-21 20:37:00,
2013-03-21 13:42:00,63.0,41.3,29.64,North,357,0.0,0.0,45,0.00,,,0.02,VWS V14.01,2013-03-21 20:42:00,
2013-03-21 13:53:00,62.5,40.9,29.63,SSE,151,0.0,0.0,45,0.00,,,0.02,VWS V14.01,2013-03-21 20:53:00,
2013-03-21 13:58:00,62.0,40.4,29.63,ESE,119,0.0,0.0,45,0.00,,,0.02,VWS V14.01,2013-03-21 20:58:00,
2013-03-21 14:00:00,53.8,49.1,29.67,NNW,338,0.0,0.0,84,0.00,,,0.02,VWS V14.01,2013-03-21 21:00:00,
2013-03-21 14:03:00,61.7,40.7,29.63,SSE,162,0.0,0.0,46,0.00,,,0.02,VWS V14.01,2013-03-21 21:03:00,
2013-03-21 14:08:00,61.5,41.7,29.63,SSE,161,0.0,0.0,48,0.00,,,0.02,VWS V14.01,2013-03-21 21:08:00,
2013-03-21 14:13:00,62.7,41.6,29.63,SSE,161,0.0,0.0,46,0.00,,,0.02,VWS V14.01,2013-03-21 21:13:00,
2013-03-21 14:18:00,62.4,40.8,29.62,SSE,164,0.0,0.0,45,0.00,,,0.02,VWS V14.01,2013-03-21 21:18:00,
2013-03-21 14:23:00,62.4,41.4,29.61,ESE,113,0.0,0.0,46,0.00,,,0.02,VWS V14.01,2013-03-21 21:23:00,
2013-03-21 14:28:00,62.4,40.8,29.62,ESE,116,0.0,0.0,45,0.00,,,0.02,VWS V14.01,2013-03-21 21:28:00,
2013-03-21 14:30:00,55.5,50.4,29.66,NNW,338,0.0,0.0,83,0.00,,,0.02,VWS V14.01,2013-03-21 21:30:00,
2013-03-21 14:33:00,62.3,40.7,29.61,ESE,121,0.0,0.0,45,0.00,,,0.02,VWS V14.01,2013-03-21 21:33:00,
2013-03-21 14:38:00,62.6,41.0,29.62,WSW,247,0.0,0.0,45,0.00,,,0.02,VWS V14.01,2013-03-21 21:38:00,
2013-03-21 14:43:00,63.0,41.9,29.62,West,274,0.0,0.0,46,0.00,,,0.02,VWS V14.01,2013-03-21 21:43:00,
2013-03-21 14:48:00,64.1,42.9,29.61,NNW,335,0.0,0.0,46,0.00,,,0.02,VWS V14.01,2013-03-21 21:48:00,
2013-03-21 14:53:00,65.2,42.2,29.61,NNW,345,0.0,0.0,43,0.00,,,0.02,VWS V14.01,2013-03-21 21:53:00,
2013-03-21 14:58:00,65.3,42.2,29.60,NNW,341,0.0,0.0,43,0.00,,,0.02,VWS V14.01,2013-03-21 21:58:00,
2013-03-21 15:00:00,58.2,50.7,29.65,NNW,338,0.0,0.0,76,0.00,,,0.02,VWS V14.01,2013-03-21 22:00:00,
2013-03-21 15:03:00,65.6,41.3,29.60,North,352,0.0,0.0,41,0.00,,,0.02,VWS V14.01,2013-03-21 22:03:00,
2013-03-21 15:08:00,66.1,40.5,29.60,North,355,0.0,0.0,39,0.00,,,0.02,VWS V14.01,2013-03-21 22:08:00,
2013-03-21 15:13:00,66.2,40.5,29.60,North,351,0.0,0.0,39,0.00,,,0.02,VWS V14.01,2013-03-21 22:13:00,
2013-03-21 15:18:00,66.0,39.7,29.59,NNW,347,0.0,0.0,38,0.00,,,0.02,VWS V14.01,2013-03-21 22:18:00,
2013-03-21 15:23:00,66.2,39.2,29.60,NW,325,0.0,0.0,37,0.00,,,0.02,VWS V14.01,2013-03-21 22:23:00,
2013-03-21 15:28:00,66.1,40.5,29.60,NNW,339,0.0,0.0,39,0.00,,,0.02,VWS V14.01,2013-03-21 22:28:00,
2013-03-21 15:30:00,59.3,50.7,29.65,NNW,338,0.0,0.0,73,0.00,,,0.02,VWS V14.01,2013-03-21 22:30:00,
2013-03-21 15:33:00,66.4,39.4,29.59,NW,325,0.0,0.0,37,0.00,,,0.02,VWS V14.01,2013-03-21 22:33:00,
2013-03-21 15:38:00,65.8,39.5,29.59,NW,323,0.0,0.0,38,0.00,,,0.02,VWS V14.01,2013-03-21 22:38:00,
2013-03-21 15:43:00,65.1,38.9,29.59,NNW,327,0.0,0.0,38,0.00,,,0.02,VWS V14.01,2013-03-21 22:43:00,
2013-03-21 15:48:00,64.6,39.1,29.59,NNW,327,0.0,0.0,39,0.00,,,0.02,VWS V14.01,2013-03-21 22:48:00,
2013-03-21 15:53:00,64.2,39.4,29.59,NNW,341,0.0,0.0,40,0.00,,,0.02,VWS V14.01,2013-03-21 22:53:00,
2013-03-21 15:58:00,64.1,39.3,29.59,NW,326,0.0,0.0,40,0.00,,,0.02,VWS V14.01,2013-03-21 22:58:00,
2013-03-21 16:00:00,59.8,50.4,29.65,NNW,338,0.0,0.0,71,0.00,,,0.02,VWS V14.01,2013-03-21 23:00:00,
2013-03-21 16:03:00,64.1,39.3,29.59,NW,324,0.0,0.0,40,0.00,,,0.02,VWS V14.01,2013-03-21 23:03:00,
2013-03-21 16:08:00,64.0,38.6,29.60,NW,324,0.0,0.0,39,0.00,,,0.02,VWS V14.01,2013-03-21 23:08:00,
2013-03-21 16:13:00,63.7,38.3,29.59,NW,321,0.0,0.0,39,0.00,,,0.02,VWS V14.01,2013-03-21 23:13:00,
2013-03-21 16:18:00,63.2,38.5,29.59,NW,322,0.0,0.0,40,0.00,,,0.02,VWS V14.01,2013-03-21 23:18:00,
2013-03-21 16:23:00,63.1,38.4,29.59,NW,322,0.0,0.0,40,0.00,,,0.02,VWS V14.01,2013-03-21 23:23:00,
2013-03-21 16:28:00,63.1,38.4,29.59,NW,323,0.0,0.0,40,0.00,,,0.02,VWS V14.01,2013-03-21 23:28:00,
2013-03-21 16:30:00,61.1,50.1,29.65,NNW,338,0.0,0.0,67,0.00,,,0.02,VWS V14.01,2013-03-21 23:30:00,
2013-03-21 16:33:00,63.3,38.6,29.59,NW,325,0.0,0.0,40,0.00,,,0.02,VWS V14.01,2013-03-21 23:33:00,
2013-03-21 16:38:00,63.0,38.3,29.58,NNW,334,0.0,0.0,40,0.00,,,0.02,VWS V14.01,2013-03-21 23:38:00,
2013-03-21 16:43:00,62.9,38.2,29.58,NNW,332,0.0,0.0,40,0.00,,,0.02,VWS V14.01,2013-03-21 23:43:00,
2013-03-21 16:48:00,62.6,38.0,29.58,NNW,330,0.0,0.0,40,0.00,,,0.02,VWS V14.01,2013-03-21 23:48:00,
2013-03-21 16:53:00,62.2,38.8,29.58,NNW,328,0.0,0.0,42,0.00,,,0.02,VWS V14.01,2013-03-21 23:53:00,
2013-03-21 16:58:00,61.6,38.3,29.58,NNW,328,0.0,0.0,42,0.00,,,0.02,VWS V14.01,2013-03-21 23:58:00,
2013-03-21 17:00:00,62.9,52.2,29.65,NNW,338,0.0,0.0,68,0.00,,,0.02,VWS V14.01,2013-03-22 00:00:00,
2013-03-21 17:03:00,61.0,38.4,29.58,NW,326,0.0,0.0,43,0.00,,,0.02,VWS V14.01,2013-03-22 00:03:00,
2013-03-21 17:08:00,60.5,38.5,29.58,NW,326,0.0,0.0,44,0.00,,,0.02,VWS V14.01,2013-03-22 00:08:00,
2013-03-21 17:13:00,60.6,38.6,29.58,NW,326,0.0,0.0,44,0.00,,,0.02,VWS V14.01,2013-03-22 00:13:00,
2013-03-21 17:18:00,60.8,38.8,29.58,NW,325,0.0,0.0,44,0.00,,,0.02,VWS V14.01,2013-03-22 00:18:00,
2013-03-21 17:23:00,60.3,38.9,29.58,NW,326,0.0,0.0,45,0.00,,,0.02,VWS V14.01,2013-03-22 00:23:00,
2013-03-21 17:28:00,60.0,39.2,29.58,NW,326,0.0,0.0,46,0.00,,,0.02,VWS V14.01,2013-03-22 00:28:00,
2013-03-21 17:30:00,62.5,51.8,29.65,NNW,338,0.0,0.0,68,0.00,,,0.02,VWS V14.01,2013-03-22 00:30:00,
2013-03-21 17:33:00,59.6,39.4,29.58,NNW,328,0.0,0.0,47,0.00,,,0.02,VWS V14.01,2013-03-22 00:33:00,
2013-03-21 17:38:00,59.4,39.2,29.58,NNW,329,0.0,0.0,47,0.00,,,0.02,VWS V14.01,2013-03-22 00:38:00,
2013-03-21 17:43:00,59.1,38.9,29.58,NNW,329,0.0,0.0,47,0.00,,,0.02,VWS V14.01,2013-03-22 00:43:00,
2013-03-21 17:48:00,58.6,38.5,29.58,NNW,329,0.0,0.0,47,0.00,,,0.02,VWS V14.01,2013-03-22 00:48:00,
2013-03-21 17:53:00,58.5,38.4,29.58,NNW,330,0.0,0.0,47,0.00,,,0.02,VWS V14.01,2013-03-22 00:53:00,
2013-03-21 17:59:00,58.4,38.8,29.58,NNW,330,0.0,0.0,48,0.00,,,0.02,VWS V14.01,2013-03-22 00:59:00,
2013-03-21 18:00:00,63.6,51.6,29.63,NNW,338,0.0,0.0,65,0.00,,,0.02,VWS V14.01,2013-03-22 01:00:00,
2013-03-21 18:04:00,58.3,38.7,29.58,NNW,345,0.0,0.0,48,0.00,,,0.02,VWS V14.01,2013-03-22 01:04:00,
2013-03-21 18:09:00,58.2,38.6,29.58,NNW,340,0.0,0.0,48,0.00,,,0.02,VWS V14.01,2013-03-22 01:09:00,
2013-03-21 18:14:00,57.8,38.3,29.57,NNW,336,0.0,0.0,48,0.00,,,0.02,VWS V14.01,2013-03-22 01:14:00,
2013-03-21 18:19:00,57.3,38.3,29.58,NNW,337,0.0,0.0,49,0.00,,,0.02,VWS V14.01,2013-03-22 01:19:00,
2013-03-21 18:24:00,57.1,38.1,29.58,NNW,342,0.0,0.0,49,0.00,,,0.02,VWS V14.01,2013-03-22 01:24:00,
2013-03-21 18:29:00,56.8,37.9,29.58,NNW,341,0.0,0.0,49,0.00,,,0.02,VWS V14.01,2013-03-22 01:29:00,
2013-03-21 18:30:00,60.7,51.6,29.63,NNW,338,0.0,0.0,72,0.00,,,0.02,VWS V14.01,2013-03-22 01:30:00,
2013-03-21 18:34:00,56.2,37.8,29.58,NNW,332,0.0,0.0,50,0.00,,,0.02,VWS V14.01,2013-03-22 01:34:00,
2013-03-21 18:39:00,55.7,37.9,29.58,NNW,329,0.0,0.0,51,0.00,,,0.02,VWS V14.01,2013-03-22 01:39:00,
2013-03-21 18:44:00,55.3,38.0,29.58,NNW,336,0.0,0.0,52,0.00,,,0.02,VWS V14.01,2013-03-22 01:44:00,
2013-03-21 18:49:00,54.8,38.0,29.58,NNW,335,0.0,0.0,53,0.00,,,0.02,VWS V14.01,2013-03-22 01:49:00,
2013-03-21 18:54:00,54.5,38.2,29.58,NNW,335,0.0,0.0,54,0.00,,,0.02,VWS V14.01,2013-03-22 01:54:00,
2013-03-21 18:59:00,54.2,38.4,29.58,NNW,335,0.0,0.0,55,0.00,,,0.02,VWS V14.01,2013-03-22 01:59:00,
2013-03-21 19:00:00,58.9,50.3,29.65,NNW,338,0.0,0.0,73,0.00,,,0.02,VWS V14.01,2013-03-22 02:00:00,
2013-03-21 19:04:00,53.8,38.0,29.58,NNW,333,0.0,0.0,55,0.00,,,0.02,VWS V14.01,2013-03-22 02:04:00,
2013-03-21 19:09:00,53.3,38.0,29.58,NNW,332,0.0,0.0,56,0.00,,,0.02,VWS V14.01,2013-03-22 02:09:00,
2013-03-21 19:14:00,52.9,38.1,29.57,NNW,332,0.0,0.0,57,0.00,,,0.02,VWS V14.01,2013-03-22 02:14:00,
2013-03-21 19:19:00,52.5,38.2,29.58,NNW,331,0.0,0.0,58,0.00,,,0.02,VWS V14.01,2013-03-22 02:19:00,
2013-03-21 19:24:00,52.2,37.9,29.58,NNW,331,0.0,0.0,58,0.00,,,0.02,VWS V14.01,2013-03-22 02:24:00,
2013-03-21 19:29:00,52.0,38.1,29.58,NNW,331,0.0,0.0,59,0.00,,,0.02,VWS V14.01,2013-03-22 02:29:00,
2013-03-21 19:30:00,58.1,49.5,29.65,NNW,338,0.0,0.0,73,0.00,,,0.02,VWS V14.01,2013-03-22 02:30:00,
2013-03-21 19:34:00,51.8,38.4,29.58,NNW,331,0.0,0.0,60,0.00,,,0.02,VWS V14.01,2013-03-22 02:34:00,
2013-03-21 19:39:00,51.5,38.1,29.58,NNW,331,0.0,0.0,60,0.00,,,0.02,VWS V14.01,2013-03-22 02:39:00,
2013-03-21 19:44:00,51.3,37.9,29.58,NNW,331,0.0,0.0,60,0.00,,,0.02,VWS V14.01,2013-03-22 02:44:00,
2013-03-21 19:49:00,51.2,37.8,29.58,NNW,331,0.0,0.0,60,0.00,,,0.02,VWS V14.01,2013-03-22 02:49:00,
2013-03-21 19:54:00,51.0,38.0,29.58,NNW,331,0.0,0.0,61,0.00,,,0.02,VWS V14.01,2013-03-22 02:54:00,
2013-03-21 19:59:00,50.9,38.0,29.58,NNW,331,0.0,0.0,61,0.00,,,0.02,VWS V14.01,2013-03-22 02:59:00,
2013-03-21 20:00:00,57.1,48.5,29.66,NNW,338,0.0,0.0,73,0.00,,,0.02,VWS V14.01,2013-03-22 03:00:00,
2013-03-21 20:04:00,50.7,38.2,29.59,NNW,330,0.0,0.0,62,0.00,,,0.02,VWS V14.01,2013-03-22 03:04:00,
2013-03-21 20:09:00,50.5,38.4,29.58,NNW,329,0.0,0.0,63,0.00,,,0.02,VWS V14.01,2013-03-22 03:09:00,
2013-03-21 20:14:00,50.3,38.2,29.59,NNW,329,0.0,0.0,63,0.00,,,0.02,VWS V14.01,2013-03-22 03:14:00,
2013-03-21 20:19:00,50.2,38.1,29.58,NNW,329,0.0,0.0,63,0.00,,,0.02,VWS V14.01,2013-03-22 03:19:00,
2013-03-21 20:24:00,50.0,38.3,29.58,NNW,329,0.0,0.0,64,0.00,,,0.02,VWS V14.01,2013-03-22 03:24:00,
2013-03-21 20:29:00,49.8,38.1,29.59,NNW,329,0.0,0.0,64,0.00,,,0.02,VWS V14.01,2013-03-22 03:29:00,
2013-03-21 20:30:00,55.9,47.7,29.66,NNW,338,0.0,0.0,74,0.00,,,0.02,VWS V14.01,2013-03-22 03:30:00,
2013-03-21 20:34:00,49.7,38.4,29.59,NNW,329,0.0,0.0,65,0.00,,,0.02,VWS V14.01,2013-03-22 03:34:00,
2013-03-21 20:39:00,49.5,38.2,29.58,NNW,329,0.0,0.0,65,0.00,,,0.02,VWS V14.01,2013-03-22 03:39:00,
2013-03-21 20:44:00,49.4,38.1,29.59,NNW,329,0.0,0.0,65,0.00,,,0.02,VWS V14.01,2013-03-22 03:44:00,
2013-03-21 20:49:00,49.4,38.5,29.59,NNW,329,0.0,0.0,66,0.00,,,0.02,VWS V14.01,2013-03-22 03:49:00,
2013-03-21 20:54:00,49.2,38.3,29.59,NNW,329,0.0,0.0,66,0.00,,,0.02,VWS V14.01,2013-03-22 03:54:00,
2013-03-21 20:59:00,49.1,38.6,29.59,NNW,330,0.0,0.0,67,0.00,,,0.02,VWS V14.01,2013-03-22 03:59:00,
2013-03-21 21:00:00,54.9,48.2,29.67,NNW,338,0.0,0.0,78,0.00,,,0.02,VWS V14.01,2013-03-22 04:00:00,
2013-03-21 21:04:00,49.0,38.5,29.59,NNW,330,0.0,0.0,67,0.00,,,0.02,VWS V14.01,2013-03-22 04:04:00,
2013-03-21 21:09:00,48.9,38.4,29.60,NNW,330,0.0,0.0,67,0.00,,,0.02,VWS V14.01,2013-03-22 04:09:00,
2013-03-21 21:14:00,48.8,38.3,29.60,NNW,333,0.0,0.0,67,0.00,,,0.02,VWS V14.01,2013-03-22 04:14:00,
2013-03-21 21:19:00,48.7,38.6,29.60,NNW,333,0.0,0.0,68,0.00,,,0.02,VWS V14.01,2013-03-22 04:19:00,
2013-03-21 21:24:00,48.7,38.6,29.60,NNW,333,0.0,0.0,68,0.00,,,0.02,VWS V14.01,2013-03-22 04:24:00,
2013-03-21 21:29:00,48.6,38.9,29.60,NNW,332,0.0,0.0,69,0.00,,,0.02,VWS V14.01,2013-03-22 04:29:00,
2013-03-21 21:30:00,54.2,48.5,29.67,NNW,338,0.0,0.0,81,0.00,,,0.02,VWS V14.01,2013-03-22 04:30:00,
2013-03-21 21:34:00,48.5,39.2,29.60,NNW,332,0.0,0.0,70,0.00,,,0.02,VWS V14.01,2013-03-22 04:34:00,
2013-03-21 21:39:00,48.2,38.9,29.61,NNW,332,0.0,0.0,70,0.00,,,0.02,VWS V14.01,2013-03-22 04:39:00,
2013-03-21 21:44:00,48.2,38.9,29.61,NNW,332,0.0,0.0,70,0.00,,,0.02,VWS V14.01,2013-03-22 04:44:00,
2013-03-21 21:49:00,48.2,38.9,29.61,NNW,333,0.0,0.0,70,0.00,,,0.02,VWS V14.01,2013-03-22 04:49:00,
2013-03-21 21:54:00,48.2,38.9,29.61,NNW,336,0.0,0.0,70,0.00,,,0.02,VWS V14.01,2013-03-22 04:54:00,
2013-03-21 21:59:00,48.1,39.2,29.61,NNW,336,0.0,0.0,71,0.00,,,0.02,VWS V14.01,2013-03-22 04:59:00,
2013-03-21 22:00:00,53.8,48.8,29.68,NNW,338,0.0,0.0,83,0.00,,,0.02,VWS V14.01,2013-03-22 05:00:00,
2013-03-21 22:04:00,48.2,39.2,29.61,NNW,336,0.0,0.0,71,0.00,,,0.02,VWS V14.01,2013-03-22 05:04:00,
2013-03-21 22:09:00,47.9,39.0,29.62,NNW,336,0.0,0.0,71,0.00,,,0.02,VWS V14.01,2013-03-22 05:09:00,
2013-03-21 22:14:00,47.7,39.1,29.62,NNW,336,0.0,0.0,72,0.00,,,0.02,VWS V14.01,2013-03-22 05:14:00,
2013-03-21 22:19:00,47.8,38.9,29.62,NNW,336,0.0,0.0,71,0.00,,,0.02,VWS V14.01,2013-03-22 05:19:00,
2013-03-21 22:24:00,47.8,39.2,29.62,NNW,336,0.0,0.0,72,0.00,,,0.02,VWS V14.01,2013-03-22 05:24:00,
2013-03-21 22:29:00,47.6,38.7,29.62,NNW,336,0.0,0.0,71,0.00,,,0.02,VWS V14.01,2013-03-22 05:29:00,
2013-03-21 22:30:00,53.4,48.7,29.69,NNW,338,0.0,0.0,84,0.00,,,0.02,VWS V14.01,2013-03-22 05:30:00,
2013-03-21 22:34:00,47.5,38.9,29.61,NNW,336,0.0,0.0,72,0.00,,,0.02,VWS V14.01,2013-03-22 05:34:00,
2013-03-21 22:40:00,47.4,38.8,29.62,NNW,336,0.0,0.0,72,0.00,,,0.02,VWS V14.01,2013-03-22 05:40:00,
2013-03-21 22:45:00,47.3,38.7,29.62,NNW,336,0.0,0.0,72,0.00,,,0.02,VWS V14.01,2013-03-22 05:45:00,
2013-03-21 22:50:00,47.3,38.7,29.62,NNW,336,0.0,0.0,72,0.00,,,0.02,VWS V14.01,2013-03-22 05:50:00,
2013-03-21 22:55:00,47.2,39.0,29.62,NNW,336,0.0,0.0,73,0.00,,,0.02,VWS V14.01,2013-03-22 05:55:00,
2013-03-21 23:00:00,47.0,38.8,29.62,NNW,336,0.0,0.0,73,0.00,,,0.02,VWS V14.01,2013-03-22 06:00:00,
2013-03-21 23:05:00,46.9,38.7,29.62,NNW,336,0.0,0.0,73,0.00,,,0.02,VWS V14.01,2013-03-22 06:05:00,
2013-03-21 23:10:00,46.8,38.6,29.62,NNW,336,0.0,0.0,73,0.00,,,0.02,VWS V14.01,2013-03-22 06:10:00,
2013-03-21 23:15:00,46.7,38.9,29.62,NNW,336,0.0,0.0,74,0.00,,,0.02,VWS V14.01,2013-03-22 06:15:00,
2013-03-21 23:20:00,46.8,38.6,29.62,NNW,336,0.0,0.0,73,0.00,,,0.02,VWS V14.01,2013-03-22 06:20:00,
2013-03-21 23:25:00,46.8,38.6,29.62,NNW,336,0.0,0.0,73,0.00,,,0.02,VWS V14.01,2013-03-22 06:25:00,
2013-03-21 23:30:00,46.9,38.7,29.62,NNW,336,0.0,0.0,73,0.00,,,0.02,VWS V14.01,2013-03-22 06:30:00,
2013-03-21 23:35:00,46.8,38.6,29.62,NNW,336,0.0,0.0,73,0.00,,,0.02,VWS V14.01,2013-03-22 06:35:00,
2013-03-21 23:40:00,46.8,38.6,29.61,NNW,336,0.0,0.0,73,0.00,,,0.02,VWS V14.01,2013-03-22 06:40:00,
2013-03-21 23:45:00,46.8,38.3,29.61,NNW,336,0.0,0.0,72,0.00,,,0.02,VWS V14.01,2013-03-22 06:45:00,
2013-03-21 23:50:00,46.8,38.3,29.62,NNW,336,0.0,0.0,72,0.00,,,0.02,VWS V14.01,2013-03-22 06:50:00,
2013-03-21 23:55:00,46.8,38.3,29.61,NNW,336,0.0,0.0,72,0.00,,,0.02,VWS V14.01,2013-03-22 06:55:00,